Time;durP1;ratioP1;P1;durP2;ratioP2;P2;SDS_P1;SDS_P2;PMS_P1;PMS_P2;Temp;Humidity;BMP_temperature;BMP_pressure;BME280_temperature;BME280_humidity;BME280_pressure;Samples;Min_cycle;Max_cycle;Signal;HPM_P1;HPM_P2
2024/01/31 00:01:29;;;;;;;24.27;9.53;;;;;;;;;;10449914;28;20378;-77
2024/01/31 00:06:30;;;;;;;22.97;10.30;;;;;;;;;;10473877;28;20032;-77
2024/01/31 00:11:31;;;;;;;18.87;9.70;;;;;;;;;;10419282;28;20082;-77
2024/01/31 00:16:32;;;;;;;19.47;10.03;;;;;;;;;;10460911;28;20048;-78
2024/01/31 00:21:33;;;;;;;18.20;9.80;;;;;;;;;;10471478;28;20056;-76
2024/01/31 00:26:34;;;;;;;17.50;8.80;;;;;;;;;;10459123;28;20037;-77
2024/01/31 00:31:35;;;;;;;22.23;10.47;;;;;;;;;;10463293;28;20419;-78
2024/01/31 00:36:36;;;;;;;21.27;10.43;;;;;;;;;;10476078;28;20063;-77
2024/01/31 00:41:37;;;;;;;20.83;10.60;;;;;;;;;;10463077;28;20083;-77
2024/01/31 00:46:46;;;;;;;20.47;10.70;;;;;;;;;;10441333;28;20033;-77
2024/01/31 00:51:47;;;;;;;21.63;10.63;;;;;;;;;;10455554;28;20020;-77
2024/01/31 00:56:48;;;;;;;21.80;11.27;;;;;;;;;;10458630;28;20037;-80
2024/01/31 01:01:49;;;;;;;21.27;11.40;;;;;;;;;;10436848;28;20052;-81
2024/01/31 01:06:50;;;;;;;26.30;11.30;;;;;;;;;;10436511;28;20028;-79
2024/01/31 01:11:57;;;;;;;23.93;12.13;;;;;;;;;;10448630;28;20122;-79
2024/01/31 01:16:58;;;;;;;30.17;13.87;;;;;;;;;;10447549;28;20051;-77
2024/01/31 01:22:00;;;;;;;31.23;14.00;;;;;;;;;;10452560;28;20033;-76
2024/01/31 01:27:01;;;;;;;29.57;14.13;;;;;;;;;;10445406;28;20439;-77
2024/01/31 01:32:02;;;;;;;27.63;14.90;;;;;;;;;;10445339;28;20052;-77
2024/01/31 01:37:03;;;;;;;27.40;13.53;;;;;;;;;;10459625;28;20468;-81
2024/01/31 01:42:04;;;;;;;26.23;13.67;;;;;;;;;;10439647;28;20037;-77
2024/01/31 01:47:06;;;;;;;28.00;14.03;;;;;;;;;;10471199;28;20157;-78
2024/01/31 01:52:08;;;;;;;26.07;12.83;;;;;;;;;;10465410;28;20453;-79
2024/01/31 01:57:09;;;;;;;31.23;15.00;;;;;;;;;;10471080;28;20040;-79
2024/01/31 02:02:10;;;;;;;28.17;13.53;;;;;;;;;;10436512;28;20488;-77
2024/01/31 02:07:12;;;;;;;29.63;13.63;;;;;;;;;;10453476;28;20068;-77
2024/01/31 02:12:13;;;;;;;24.47;13.13;;;;;;;;;;10448001;28;20033;-80
2024/01/31 02:17:14;;;;;;;27.43;14.67;;;;;;;;;;10459173;28;20049;-80
2024/01/31 02:22:22;;;;;;;30.03;14.13;;;;;;;;;;10466214;28;20029;-81
2024/01/31 02:27:23;;;;;;;30.03;15.90;;;;;;;;;;10434739;28;20033;-77
2024/01/31 02:32:24;;;;;;;29.07;15.83;;;;;;;;;;10432298;28;20432;-77
2024/01/31 02:37:25;;;;;;;35.47;19.10;;;;;;;;;;10454458;28;20044;-78
2024/01/31 02:42:26;;;;;;;35.70;17.23;;;;;;;;;;10437512;28;20699;-77
2024/01/31 02:47:27;;;;;;;29.63;15.33;;;;;;;;;;10429212;28;20625;-79
2024/01/31 02:52:28;;;;;;;30.20;15.23;;;;;;;;;;10462998;28;20037;-78
2024/01/31 02:57:29;;;;;;;28.43;15.43;;;;;;;;;;10464972;22;20040;-78
2024/01/31 03:02:30;;;;;;;24.93;13.23;;;;;;;;;;10466886;28;20029;-78
2024/01/31 03:07:31;;;;;;;30.03;13.33;;;;;;;;;;10471454;28;20039;-78
2024/01/31 03:12:32;;;;;;;29.87;15.27;;;;;;;;;;10485387;28;20040;-78
2024/01/31 03:17:35;;;;;;;27.70;14.33;;;;;;;;;;10483533;28;20037;-80
2024/01/31 03:22:36;;;;;;;26.80;13.90;;;;;;;;;;10474839;28;20589;-81
2024/01/31 03:27:44;;;;;;;34.13;17.57;;;;;;;;;;10475742;28;20518;-77
2024/01/31 03:32:45;;;;;;;30.53;17.90;;;;;;;;;;10479679;28;20120;-80
2024/01/31 03:37:55;;;;;;;37.27;19.27;;;;;;;;;;10469165;28;20072;-77
2024/01/31 03:42:56;;;;;;;37.13;19.10;;;;;;;;;;10477423;28;20399;-78
2024/01/31 03:47:57;;;;;;;33.43;18.23;;;;;;;;;;10466615;28;20144;-79
2024/01/31 03:52:58;;;;;;;31.97;17.43;;;;;;;;;;10463367;28;20033;-78
2024/01/31 03:57:59;;;;;;;31.63;16.23;;;;;;;;;;10475277;28;20115;-81
2024/01/31 04:03:00;;;;;;;33.17;16.33;;;;;;;;;;10459813;28;20206;-77
2024/01/31 04:08:02;;;;;;;33.97;17.63;;;;;;;;;;10481133;28;20032;-78
2024/01/31 04:13:03;;;;;;;33.13;17.67;;;;;;;;;;10471420;28;20480;-78
2024/01/31 04:18:04;;;;;;;33.73;17.23;;;;;;;;;;10483615;28;20047;-78
2024/01/31 04:23:06;;;;;;;40.17;19.03;;;;;;;;;;10470542;28;20129;-77
2024/01/31 04:28:07;;;;;;;39.27;19.13;;;;;;;;;;10455463;28;20036;-79
2024/01/31 04:33:08;;;;;;;36.33;18.27;;;;;;;;;;10470308;28;20037;-80
2024/01/31 04:38:09;;;;;;;35.63;17.13;;;;;;;;;;10461514;28;20037;-80
2024/01/31 04:43:10;;;;;;;35.20;18.10;;;;;;;;;;10487880;28;20029;-77
2024/01/31 04:48:11;;;;;;;37.13;17.43;;;;;;;;;;10465854;28;20024;-78
2024/01/31 04:53:12;;;;;;;34.60;18.23;;;;;;;;;;10495780;28;20028;-78
2024/01/31 04:58:14;;;;;;;31.93;18.03;;;;;;;;;;10488182;28;20044;-77
2024/01/31 05:03:15;;;;;;;38.57;18.87;;;;;;;;;;10470853;28;20100;-79
2024/01/31 05:08:16;;;;;;;39.37;19.07;;;;;;;;;;10472364;28;20472;-77
2024/01/31 05:13:17;;;;;;;40.13;21.07;;;;;;;;;;10464684;28;20029;-79
2024/01/31 05:18:18;;;;;;;37.80;21.17;;;;;;;;;;10473088;28;20033;-77
2024/01/31 05:23:19;;;;;;;42.20;20.60;;;;;;;;;;10458282;28;20660;-77
2024/01/31 05:28:20;;;;;;;47.07;22.00;;;;;;;;;;10473005;28;20028;-79
2024/01/31 05:33:21;;;;;;;43.50;21.90;;;;;;;;;;10452705;28;20028;-77
2024/01/31 05:38:22;;;;;;;43.37;22.33;;;;;;;;;;10488098;28;20051;-78
2024/01/31 05:43:23;;;;;;;54.93;25.43;;;;;;;;;;10484917;28;20024;-80
2024/01/31 05:48:24;;;;;;;50.67;26.00;;;;;;;;;;10477600;28;20033;-80
2024/01/31 05:53:25;;;;;;;49.43;23.60;;;;;;;;;;10483033;28;20563;-77
2024/01/31 05:58:27;;;;;;;44.70;21.67;;;;;;;;;;10432834;28;20063;-77
2024/01/31 06:03:28;;;;;;;48.47;24.93;;;;;;;;;;10465474;28;20682;-77
2024/01/31 06:08:29;;;;;;;45.33;23.27;;;;;;;;;;10449648;28;20068;-78
2024/01/31 06:13:31;;;;;;;37.30;20.77;;;;;;;;;;10448162;28;20359;-77
2024/01/31 06:18:34;;;;;;;43.13;22.10;;;;;;;;;;10453581;28;20839;-77
2024/01/31 06:23:35;;;;;;;40.33;21.47;;;;;;;;;;10460133;28;20480;-80
2024/01/31 06:28:38;;;;;;;40.90;22.37;;;;;;;;;;10475034;28;20028;-80
2024/01/31 06:33:41;;;;;;;41.33;20.80;;;;;;;;;;10464221;28;20056;-78
2024/01/31 06:38:42;;;;;;;42.60;20.60;;;;;;;;;;10456940;28;20366;-79
2024/01/31 06:43:43;;;;;;;40.87;21.07;;;;;;;;;;10473036;28;20028;-77
2024/01/31 06:48:44;;;;;;;48.97;24.17;;;;;;;;;;10461424;28;20025;-78
2024/01/31 06:53:45;;;;;;;48.73;24.97;;;;;;;;;;10459123;28;20040;-77
2024/01/31 06:58:46;;;;;;;42.70;22.33;;;;;;;;;;10470605;28;20060;-78
2024/01/31 07:03:47;;;;;;;46.20;22.27;;;;;;;;;;10461266;28;20037;-78
2024/01/31 07:08:55;;;;;;;44.33;22.53;;;;;;;;;;10472595;28;20495;-78
2024/01/31 07:13:56;;;;;;;46.37;22.67;;;;;;;;;;10483320;28;20103;-78
2024/01/31 07:18:57;;;;;;;51.20;25.77;;;;;;;;;;10464380;28;20087;-78
2024/01/31 07:23:58;;;;;;;47.17;26.07;;;;;;;;;;10453037;28;20032;-81
2024/01/31 07:28:59;;;;;;;46.53;25.40;;;;;;;;;;10471703;28;20519;-78
2024/01/31 07:34:01;;;;;;;48.07;24.73;;;;;;;;;;10475198;28;20031;-81
2024/01/31 07:39:04;;;;;;;54.27;28.07;;;;;;;;;;10474298;28;20757;-78
2024/01/31 07:44:11;;;;;;;48.63;25.47;;;;;;;;;;10472134;28;20127;-79
2024/01/31 07:49:19;;;;;;;67.47;34.93;;;;;;;;;;10449056;28;20124;-79
2024/01/31 07:54:21;;;;;;;51.03;27.13;;;;;;;;;;10467134;28;20086;-78
2024/01/31 07:59:22;;;;;;;52.77;26.03;;;;;;;;;;10470523;28;20084;-80
2024/01/31 08:04:23;;;;;;;55.70;27.73;;;;;;;;;;10489765;28;20178;-79
2024/01/31 08:09:24;;;;;;;55.33;28.43;;;;;;;;;;10473420;28;20082;-78
2024/01/31 08:14:25;;;;;;;56.47;27.80;;;;;;;;;;10473792;28;20072;-79
2024/01/31 08:19:26;;;;;;;54.70;29.00;;;;;;;;;;10491275;28;20078;-78
2024/01/31 08:24:27;;;;;;;47.40;23.10;;;;;;;;;;10473616;28;20068;-78
2024/01/31 08:29:28;;;;;;;45.10;23.83;;;;;;;;;;10469045;28;20031;-78
2024/01/31 08:34:30;;;;;;;45.07;24.37;;;;;;;;;;10489123;28;20040;-79
2024/01/31 08:39:31;;;;;;;45.17;24.73;;;;;;;;;;10490031;28;20107;-79
2024/01/31 08:44:32;;;;;;;47.77;24.20;;;;;;;;;;10487694;28;20082;-80
2024/01/31 08:49:33;;;;;;;45.57;25.10;;;;;;;;;;10477409;28;20182;-78
2024/01/31 08:54:34;;;;;;;47.77;25.93;;;;;;;;;;10482639;28;20048;-78
2024/01/31 08:59:35;;;;;;;48.67;26.77;;;;;;;;;;10471619;28;20061;-80
2024/01/31 09:04:36;;;;;;;53.30;27.93;;;;;;;;;;10478824;28;20131;-78
2024/01/31 09:09:39;;;;;;;48.00;26.03;;;;;;;;;;10481994;28;20484;-80
2024/01/31 09:14:40;;;;;;;56.33;27.47;;;;;;;;;;10468080;28;20237;-80
2024/01/31 09:19:41;;;;;;;52.60;28.70;;;;;;;;;;10481274;28;20033;-80
2024/01/31 09:24:48;;;;;;;51.20;28.13;;;;;;;;;;10467078;28;20044;-79
2024/01/31 09:29:49;;;;;;;57.57;30.03;;;;;;;;;;10466649;28;20076;-79
2024/01/31 09:34:50;;;;;;;52.10;28.70;;;;;;;;;;10449733;28;20051;-79
2024/01/31 09:39:54;;;;;;;58.60;30.53;;;;;;;;;;10458022;28;20055;-79
2024/01/31 09:44:56;;;;;;;54.53;30.63;;;;;;;;;;10483201;28;20102;-79
2024/01/31 09:49:57;;;;;;;54.90;30.87;;;;;;;;;;10478399;28;20089;-78
2024/01/31 09:54:58;;;;;;;60.57;31.37;;;;;;;;;;10480113;28;20426;-78
2024/01/31 10:00:01;;;;;;;60.70;32.60;;;;;;;;;;10483954;28;20060;-77
2024/01/31 10:05:03;;;;;;;61.37;31.60;;;;;;;;;;10484610;28;20368;-79
2024/01/31 10:10:04;;;;;;;56.00;29.10;;;;;;;;;;10468053;28;20036;-78
2024/01/31 10:15:09;;;;;;;54.57;28.60;;;;;;;;;;10469495;28;20048;-76
2024/01/31 10:20:10;;;;;;;52.63;28.07;;;;;;;;;;10471319;28;20029;-79
2024/01/31 10:25:16;;;;;;;57.67;28.43;;;;;;;;;;10473380;28;20040;-80
2024/01/31 10:30:17;;;;;;;58.38;28.88;;;;;;;;;;10472653;28;20043;-77
2024/01/31 10:35:19;;;;;;;58.07;29.00;;;;;;;;;;10473116;28;20025;-77
2024/01/31 10:40:54;;;;;;;61.35;39.03;;;;;;;;;;10260744;27;8248288;-80
2024/01/31 10:45:55;;;;;;;54.65;30.10;;;;;;;;;;10478812;28;20035;-77
2024/01/31 10:50:58;;;;;;;60.53;33.93;;;;;;;;;;10482482;28;20035;-78
2024/01/31 10:55:59;;;;;;;55.23;32.30;;;;;;;;;;10471027;28;20032;-79
2024/01/31 11:01:03;;;;;;;53.27;30.53;;;;;;;;;;10476550;28;20108;-78
2024/01/31 11:06:04;;;;;;;58.80;31.97;;;;;;;;;;10466462;28;20025;-79
2024/01/31 11:11:09;;;;;;;57.87;29.57;;;;;;;;;;10479104;28;20066;-78
2024/01/31 11:16:10;;;;;;;56.47;31.88;;;;;;;;;;10473535;28;20037;-78
2024/01/31 11:21:11;;;;;;;62.37;32.40;;;;;;;;;;10477495;28;20039;-79
2024/01/31 11:26:13;;;;;;;68.60;34.50;;;;;;;;;;10475152;28;20025;-79
2024/01/31 11:31:14;;;;;;;70.37;37.90;;;;;;;;;;10475831;28;20116;-79
2024/01/31 11:36:15;;;;;;;68.33;34.37;;;;;;;;;;10476724;28;20500;-78
2024/01/31 11:41:16;;;;;;;64.63;34.77;;;;;;;;;;10508430;28;20040;-78
2024/01/31 11:46:18;;;;;;;65.90;36.30;;;;;;;;;;10511613;28;20036;-80
2024/01/31 11:51:19;;;;;;;65.30;36.73;;;;;;;;;;10488992;28;20024;-79
2024/01/31 11:56:20;;;;;;;67.90;36.70;;;;;;;;;;10480329;28;20036;-77
2024/01/31 12:01:21;;;;;;;75.93;39.93;;;;;;;;;;10460724;28;20032;-79
2024/01/31 12:06:22;;;;;;;79.53;40.77;;;;;;;;;;10495367;22;20388;-77
2024/01/31 12:11:24;;;;;;;69.67;36.87;;;;;;;;;;10480818;28;20078;-77
2024/01/31 12:16:25;;;;;;;66.30;38.40;;;;;;;;;;10479379;28;20563;-77
2024/01/31 12:21:26;;;;;;;71.03;38.67;;;;;;;;;;10476710;28;20495;-78
2024/01/31 12:26:27;;;;;;;76.70;39.83;;;;;;;;;;10487811;28;20395;-77
2024/01/31 12:31:28;;;;;;;71.80;40.40;;;;;;;;;;10488342;28;20568;-76
2024/01/31 12:36:30;;;;;;;73.60;38.77;;;;;;;;;;10485200;28;20116;-78
2024/01/31 12:41:31;;;;;;;72.03;39.27;;;;;;;;;;10475076;28;20028;-78
2024/01/31 12:46:32;;;;;;;73.50;40.20;;;;;;;;;;10476341;28;20021;-77
2024/01/31 12:51:33;;;;;;;71.60;40.10;;;;;;;;;;10440431;28;20032;-77
2024/01/31 12:56:34;;;;;;;73.30;39.27;;;;;;;;;;10471086;28;20091;-77
2024/01/31 13:01:35;;;;;;;81.93;44.00;;;;;;;;;;10457449;28;20025;-77
2024/01/31 13:06:36;;;;;;;82.50;46.17;;;;;;;;;;10450053;28;20061;-76
2024/01/31 13:11:37;;;;;;;86.67;45.90;;;;;;;;;;10435035;28;20070;-78
2024/01/31 13:16:38;;;;;;;83.00;43.37;;;;;;;;;;10438100;28;20049;-78
2024/01/31 13:21:40;;;;;;;76.00;41.77;;;;;;;;;;10427951;28;20029;-79
2024/01/31 13:26:41;;;;;;;76.53;42.77;;;;;;;;;;10437279;28;20033;-80
2024/01/31 13:31:42;;;;;;;81.40;43.30;;;;;;;;;;10427010;28;20033;-81
2024/01/31 13:36:43;;;;;;;78.40;43.27;;;;;;;;;;10435127;28;20064;-78
2024/01/31 13:41:44;;;;;;;84.50;45.20;;;;;;;;;;10462505;28;20391;-78
2024/01/31 13:46:46;;;;;;;84.43;44.40;;;;;;;;;;10462088;28;20029;-77
2024/01/31 13:51:47;;;;;;;81.03;43.40;;;;;;;;;;10435934;28;20025;-78
2024/01/31 13:56:48;;;;;;;79.10;42.30;;;;;;;;;;10449302;28;20035;-79
2024/01/31 14:01:49;;;;;;;91.27;47.43;;;;;;;;;;10458729;28;20502;-79
2024/01/31 14:06:57;;;;;;;93.70;46.23;;;;;;;;;;10433589;28;20102;-78
2024/01/31 14:12:06;;;;;;;94.73;46.63;;;;;;;;;;10444393;28;20578;-80
2024/01/31 14:17:07;;;;;;;88.83;45.73;;;;;;;;;;10421910;28;20067;-78
2024/01/31 14:22:08;;;;;;;98.97;50.10;;;;;;;;;;10442810;28;20043;-79
2024/01/31 14:27:10;;;;;;;90.10;48.40;;;;;;;;;;10436836;28;20040;-78
2024/01/31 14:32:12;;;;;;;95.13;49.93;;;;;;;;;;10438820;28;20036;-78
2024/01/31 14:37:13;;;;;;;90.20;48.97;;;;;;;;;;10429576;28;20045;-78
2024/01/31 14:42:14;;;;;;;94.63;49.20;;;;;;;;;;10422370;28;20172;-78
2024/01/31 14:47:15;;;;;;;104.57;53.30;;;;;;;;;;10429648;28;20059;-77
2024/01/31 14:52:16;;;;;;;99.07;51.70;;;;;;;;;;10438757;28;20092;-76
2024/01/31 14:57:18;;;;;;;98.03;51.70;;;;;;;;;;10424581;28;20052;-78
2024/01/31 15:02:21;;;;;;;93.53;51.50;;;;;;;;;;10436487;28;20037;-80
2024/01/31 15:07:22;;;;;;;92.17;48.37;;;;;;;;;;10438734;28;20136;-79
2024/01/31 15:12:23;;;;;;;93.33;49.97;;;;;;;;;;10447235;28;20056;-80
2024/01/31 15:17:24;;;;;;;104.90;52.03;;;;;;;;;;10427928;28;20500;-77
2024/01/31 15:22:26;;;;;;;146.60;71.50;;;;;;;;;;10436043;28;20047;-77
2024/01/31 15:27:35;;;;;;;179.70;87.30;;;;;;;;;;10425503;28;20502;-77
2024/01/31 15:32:37;;;;;;;137.03;73.87;;;;;;;;;;10451652;28;20444;-78
2024/01/31 15:37:39;;;;;;;173.30;97.97;;;;;;;;;;10448296;28;20089;-77
2024/01/31 15:42:40;;;;;;;176.37;89.17;;;;;;;;;;10454230;28;20583;-78
2024/01/31 15:47:42;;;;;;;163.23;91.27;;;;;;;;;;10470767;28;20025;-77
2024/01/31 15:52:43;;;;;;;163.80;93.53;;;;;;;;;;10434945;28;20392;-78
2024/01/31 15:57:44;;;;;;;160.63;82.77;;;;;;;;;;10445724;28;20037;-77
2024/01/31 16:02:45;;;;;;;160.73;91.77;;;;;;;;;;10438050;28;20030;-76
2024/01/31 16:07:48;;;;;;;165.43;95.10;;;;;;;;;;10436835;28;20119;-78
2024/01/31 16:12:49;;;;;;;137.00;71.17;;;;;;;;;;10437259;28;20893;-77
2024/01/31 16:17:50;;;;;;;153.27;79.77;;;;;;;;;;10439288;28;20057;-77
2024/01/31 16:22:52;;;;;;;187.00;87.63;;;;;;;;;;10434887;28;20116;-76
2024/01/31 16:27:53;;;;;;;198.70;92.27;;;;;;;;;;10444275;28;20320;-77
2024/01/31 16:32:54;;;;;;;164.80;82.47;;;;;;;;;;10429415;28;20091;-79
2024/01/31 16:38:02;;;;;;;368.37;172.40;;;;;;;;;;10431702;28;20043;-78
2024/01/31 16:43:03;;;;;;;250.40;127.87;;;;;;;;;;10429845;28;20441;-76
2024/01/31 16:48:04;;;;;;;348.90;175.77;;;;;;;;;;10442914;28;20083;-76
2024/01/31 16:53:05;;;;;;;385.00;207.43;;;;;;;;;;10443673;28;21054;-79
2024/01/31 16:58:07;;;;;;;242.20;116.20;;;;;;;;;;10456664;28;20051;-76
2024/01/31 17:03:08;;;;;;;158.73;81.07;;;;;;;;;;10473015;28;20393;-78
2024/01/31 17:08:09;;;;;;;203.13;102.03;;;;;;;;;;10453367;28;20420;-78
2024/01/31 17:13:19;;;;;;;157.53;74.97;;;;;;;;;;10425410;28;20032;-77
2024/01/31 17:18:20;;;;;;;128.13;64.17;;;;;;;;;;10443602;28;20041;-77
2024/01/31 17:23:23;;;;;;;130.97;67.57;;;;;;;;;;10453001;28;20025;-78
2024/01/31 17:28:24;;;;;;;147.47;75.33;;;;;;;;;;10463055;28;20063;-77
2024/01/31 17:33:25;;;;;;;150.20;75.83;;;;;;;;;;10452988;28;20044;-78
2024/01/31 17:38:26;;;;;;;144.63;74.93;;;;;;;;;;10433120;28;20036;-80
2024/01/31 17:43:27;;;;;;;157.90;83.13;;;;;;;;;;10430960;28;20110;-79
2024/01/31 17:48:30;;;;;;;196.37;95.83;;;;;;;;;;10426258;28;20111;-78
2024/01/31 17:53:31;;;;;;;147.70;76.30;;;;;;;;;;10431334;28;20043;-78
2024/01/31 17:58:35;;;;;;;162.67;80.57;;;;;;;;;;10441027;28;20186;-77
2024/01/31 18:03:43;;;;;;;185.03;87.23;;;;;;;;;;10429375;28;20078;-80
2024/01/31 18:08:44;;;;;;;165.90;81.83;;;;;;;;;;10429717;28;20053;-79
2024/01/31 18:13:49;;;;;;;169.07;84.97;;;;;;;;;;10420724;28;20700;-79
2024/01/31 18:18:50;;;;;;;150.75;79.63;;;;;;;;;;10432996;28;20041;-80
2024/01/31 18:23:52;;;;;;;149.70;81.27;;;;;;;;;;10461967;28;20472;-78
2024/01/31 18:28:55;;;;;;;177.33;92.17;;;;;;;;;;10461436;28;20480;-80
2024/01/31 18:33:56;;;;;;;177.17;89.53;;;;;;;;;;10472913;28;20042;-78
2024/01/31 18:38:57;;;;;;;186.30;93.60;;;;;;;;;;10438130;28;20131;-80
2024/01/31 18:43:58;;;;;;;155.93;79.90;;;;;;;;;;10412970;28;20040;-77
2024/01/31 18:48:59;;;;;;;172.90;89.23;;;;;;;;;;10438577;28;20037;-80
2024/01/31 18:54:00;;;;;;;161.90;82.47;;;;;;;;;;10448039;28;20037;-80
2024/01/31 18:59:01;;;;;;;149.33;79.27;;;;;;;;;;10470122;28;20062;-77
2024/01/31 19:04:02;;;;;;;215.90;96.57;;;;;;;;;;10483560;28;20032;-78
2024/01/31 19:09:03;;;;;;;214.40;98.63;;;;;;;;;;10473632;28;20072;-79
2024/01/31 19:14:05;;;;;;;195.17;92.03;;;;;;;;;;10436528;28;20571;-77
2024/01/31 19:19:06;;;;;;;154.60;79.40;;;;;;;;;;10442485;28;20414;-77
2024/01/31 19:24:08;;;;;;;184.60;93.67;;;;;;;;;;10447889;28;20044;-80
2024/01/31 19:29:09;;;;;;;182.13;88.57;;;;;;;;;;10436810;28;20499;-77
2024/01/31 19:34:10;;;;;;;173.43;92.27;;;;;;;;;;10448440;28;20039;-77
2024/01/31 19:39:11;;;;;;;174.27;88.47;;;;;;;;;;10439382;28;20473;-77
2024/01/31 19:44:12;;;;;;;178.33;88.57;;;;;;;;;;10445499;28;20087;-81
2024/01/31 19:49:13;;;;;;;160.03;82.90;;;;;;;;;;10438768;28;20043;-78
2024/01/31 19:54:14;;;;;;;151.30;75.20;;;;;;;;;;10444658;28;20036;-77
2024/01/31 19:59:15;;;;;;;146.80;72.70;;;;;;;;;;10449623;28;20036;-78
2024/01/31 20:04:16;;;;;;;140.70;71.57;;;;;;;;;;10436575;28;20033;-80
2024/01/31 20:09:17;;;;;;;132.47;67.27;;;;;;;;;;10425179;28;20084;-77
2024/01/31 20:14:19;;;;;;;131.53;65.70;;;;;;;;;;10448553;28;20123;-76
2024/01/31 20:19:20;;;;;;;128.77;62.07;;;;;;;;;;10445793;28;20052;-81
2024/01/31 20:24:22;;;;;;;132.93;63.40;;;;;;;;;;10443351;28;20021;-77
2024/01/31 20:29:23;;;;;;;113.53;57.73;;;;;;;;;;10455965;28;20032;-77
2024/01/31 20:34:24;;;;;;;110.50;52.70;;;;;;;;;;10445584;28;20075;-77
2024/01/31 20:39:25;;;;;;;107.07;56.37;;;;;;;;;;10447450;28;20917;-77
2024/01/31 20:44:26;;;;;;;113.10;57.77;;;;;;;;;;10447400;28;20119;-76
2024/01/31 20:49:28;;;;;;;115.90;57.43;;;;;;;;;;10440807;28;20398;-79
2024/01/31 20:54:29;;;;;;;104.77;53.47;;;;;;;;;;10440566;28;20095;-77
2024/01/31 20:59:30;;;;;;;120.37;55.90;;;;;;;;;;10445597;28;20102;-77
2024/01/31 21:04:31;;;;;;;119.40;58.00;;;;;;;;;;10435300;28;20774;-80
2024/01/31 21:09:32;;;;;;;189.30;77.53;;;;;;;;;;10420358;28;20049;-78
2024/01/31 21:14:33;;;;;;;216.90;88.73;;;;;;;;;;10435741;28;20040;-79
2024/01/31 21:19:36;;;;;;;126.60;59.70;;;;;;;;;;10445324;28;20041;-80
2024/01/31 21:24:37;;;;;;;147.43;70.20;;;;;;;;;;10444286;28;20493;-78
2024/01/31 21:29:38;;;;;;;107.57;52.50;;;;;;;;;;10444343;28;20411;-77
2024/01/31 21:34:39;;;;;;;122.67;58.83;;;;;;;;;;10451294;28;20032;-80
2024/01/31 21:39:41;;;;;;;121.50;58.37;;;;;;;;;;10434735;28;20040;-76
2024/01/31 21:44:42;;;;;;;131.40;61.43;;;;;;;;;;10438492;28;20032;-78
2024/01/31 21:49:43;;;;;;;124.57;60.83;;;;;;;;;;10428299;28;20474;-77
2024/01/31 21:54:44;;;;;;;133.43;62.37;;;;;;;;;;10444877;28;20040;-79
2024/01/31 21:59:45;;;;;;;144.03;64.60;;;;;;;;;;10443697;28;20048;-77
2024/01/31 22:04:47;;;;;;;150.77;67.67;;;;;;;;;;10438210;28;20033;-80
2024/01/31 22:09:48;;;;;;;131.57;60.97;;;;;;;;;;10435135;28;20045;-78
2024/01/31 22:14:49;;;;;;;121.07;57.53;;;;;;;;;;10443122;28;20273;-77
2024/01/31 22:19:50;;;;;;;124.03;57.87;;;;;;;;;;10429842;28;20037;-78
2024/01/31 22:24:51;;;;;;;133.23;63.57;;;;;;;;;;10445163;28;20028;-77
2024/01/31 22:29:52;;;;;;;119.33;56.03;;;;;;;;;;10442602;28;20106;-77
2024/01/31 22:34:53;;;;;;;110.47;53.93;;;;;;;;;;10421215;28;20033;-77
2024/01/31 22:40:00;;;;;;;103.80;56.37;;;;;;;;;;10436126;28;20048;-80
2024/01/31 22:45:01;;;;;;;103.67;53.90;;;;;;;;;;10438206;28;20079;-79
2024/01/31 22:50:03;;;;;;;106.30;52.67;;;;;;;;;;10438536;28;20483;-80
2024/01/31 22:55:07;;;;;;;105.03;49.17;;;;;;;;;;10432496;28;20043;-79
2024/01/31 23:00:09;;;;;;;93.93;48.83;;;;;;;;;;10445612;28;20071;-77
2024/01/31 23:05:10;;;;;;;89.20;45.77;;;;;;;;;;10419481;28;20049;-77
2024/01/31 23:10:11;;;;;;;96.80;47.03;;;;;;;;;;10434640;28;20053;-77
2024/01/31 23:15:12;;;;;;;94.37;47.70;;;;;;;;;;10436955;28;20036;-77
2024/01/31 23:20:13;;;;;;;97.37;48.83;;;;;;;;;;10428362;28;20060;-78
2024/01/31 23:25:14;;;;;;;105.37;54.60;;;;;;;;;;10442606;28;20059;-79
2024/01/31 23:30:15;;;;;;;106.07;53.17;;;;;;;;;;10430881;28;20040;-77
2024/01/31 23:35:16;;;;;;;101.83;51.93;;;;;;;;;;10437707;28;20500;-79
2024/01/31 23:40:17;;;;;;;103.07;53.70;;;;;;;;;;10432521;28;20045;-78
2024/01/31 23:45:18;;;;;;;89.20;45.90;;;;;;;;;;10441146;28;20024;-77
2024/01/31 23:50:20;;;;;;;87.67;46.07;;;;;;;;;;10443247;28;20048;-77
2024/01/31 23:55:21;;;;;;;101.80;49.20;;;;;;;;;;10449691;28;20040;-77
